Terminal Aerodrome Forecast
Issued by NWS

Home | Current Version | Previous Version | Text Only | Print | Product List | Glossary On
Versions: 1 2 3 4 5 6 7 8 9 10 11 12 13 14 15 16 17 18 19 20 21 22 23 24 25 26 27 28 29
000
FTUS43 KAPX 200807 AAC
TAFPLN
TAF AMD
KPLN 200807Z 2008/2106 14005KT 1/4SM FG VV002
      TEMPO 2008/2012 1SM BR OVC002
     FM201200 00000KT 1/2SM FG OVC003
     FM201600 11005KT 1SM BR OVC003
     FM202100 09005KT 2SM BR OVC008
     FM202300 VRB03KT 1 1/2SM BR VCSH OVC008
     FM210200 00000KT 1SM -SHRA BR OVC005
     FM210500 00000KT 2SM BR OVC003=

USA.gov is the U.S. government's official web portal to all federal, state and local government web resources and services.